createdAt,value
2018-12-10T00:01:50.418Z,1.43
2018-12-10T00:06:52.913Z,1.47
2018-12-10T00:11:55.418Z,0.87
2018-12-10T00:16:57.950Z,0.60
2018-12-10T00:22:00.450Z,0.60
2018-12-10T00:27:02.946Z,0.47
2018-12-10T00:32:05.614Z,0.97
2018-12-10T00:37:08.105Z,0.97
2018-12-10T00:42:10.600Z,0.80
2018-12-10T00:47:13.098Z,0.77
2018-12-10T00:52:15.572Z,0.67
2018-12-10T00:57:18.333Z,0.70
2018-12-10T01:02:20.822Z,0.37
2018-12-10T01:07:23.296Z,0.60
2018-12-10T01:12:25.775Z,1.17
2018-12-10T01:17:28.253Z,1.20
2018-12-10T01:22:30.753Z,1.60
2018-12-10T01:27:34.111Z,1.90
2018-12-10T01:32:36.766Z,1.40
2018-12-10T01:37:39.239Z,0.93
2018-12-10T01:42:41.754Z,0.90
2018-12-10T01:47:44.260Z,0.80
2018-12-10T01:52:46.731Z,0.50
2018-12-10T01:57:49.249Z,1.10
2018-12-10T02:02:51.720Z,0.93
2018-12-10T02:07:54.213Z,0.67
2018-12-10T02:12:56.781Z,1.43
2018-12-10T02:17:59.246Z,1.27
2018-12-10T02:23:01.713Z,0.70
2018-12-10T02:28:04.217Z,0.93
2018-12-10T02:33:06.684Z,0.93
2018-12-10T02:38:09.155Z,0.93
2018-12-10T02:43:11.625Z,0.70
2018-12-10T02:48:14.095Z,0.63
2018-12-10T02:53:17.231Z,0.90
2018-12-10T02:58:19.701Z,0.63
2018-12-10T03:03:22.734Z,0.60
2018-12-10T03:08:25.258Z,1.13
2018-12-10T03:13:27.813Z,1.13
2018-12-10T03:18:30.611Z,0.67
2018-12-10T03:23:33.151Z,0.77
2018-12-10T03:28:35.633Z,1.47
2018-12-10T03:33:38.139Z,1.07
2018-12-10T03:38:41.046Z,1.77
2018-12-10T03:43:43.513Z,0.47
2018-12-10T03:48:45.982Z,0.67
2018-12-10T03:53:48.449Z,1.07
2018-12-10T03:58:50.917Z,1.13
2018-12-10T04:03:53.415Z,1.17
2018-12-10T04:08:55.920Z,1.03
2018-12-10T04:13:58.396Z,1.73
2018-12-10T04:19:00.870Z,0.73
2018-12-10T04:24:03.907Z,1.37
2018-12-10T04:29:06.386Z,0.80
2018-12-10T04:34:08.856Z,2.30
2018-12-10T04:39:11.325Z,0.70
2018-12-10T04:44:14.250Z,0.73
2018-12-10T04:49:16.989Z,0.73
2018-12-10T04:54:19.491Z,1.50
2018-12-10T04:59:21.965Z,0.87
2018-12-10T05:04:24.437Z,1.37
2018-12-10T05:09:26.912Z,0.57
2018-12-10T05:14:29.406Z,1.17
2018-12-10T05:19:31.877Z,0.47
2018-12-10T05:24:34.357Z,0.97
2018-12-10T05:29:36.828Z,1.97
2018-12-10T05:34:39.322Z,1.80
2018-12-10T05:39:41.787Z,0.60
2018-12-10T05:44:44.818Z,0.70
2018-12-10T05:49:47.409Z,1.37
2018-12-10T05:54:49.880Z,0.63
2018-12-10T05:59:53.270Z,0.50
2018-12-10T06:04:55.737Z,2.30
2018-12-10T06:09:58.212Z,1.57
2018-12-10T06:15:00.725Z,1.10
2018-12-10T06:20:04.046Z,0.60
2018-12-10T06:25:06.570Z,2.23
2018-12-10T06:30:09.326Z,0.90
2018-12-10T06:35:11.824Z,1.12
2018-12-10T06:40:14.321Z,1.90
2018-12-10T06:45:16.973Z,0.87
2018-12-10T06:50:19.445Z,0.80
2018-12-10T06:55:21.997Z,0.98
2018-12-10T07:00:24.502Z,1.50
2018-12-10T07:05:27.362Z,0.60
2018-12-10T07:10:29.863Z,1.90
2018-12-10T07:15:32.358Z,0.87
2018-12-10T07:20:34.825Z,1.10
2018-12-10T07:25:37.300Z,0.80
2018-12-10T07:30:41.473Z,1.10
2018-12-10T07:35:44.294Z,1.00
2018-12-10T07:40:46.775Z,0.87
2018-12-10T07:45:49.242Z,0.93
2018-12-10T07:50:51.771Z,0.80
2018-12-10T07:55:54.253Z,1.03
2018-12-10T08:00:56.745Z,0.50
2018-12-10T08:05:59.235Z,0.90
2018-12-10T08:11:01.881Z,1.30
2018-12-10T08:16:04.414Z,4.27
2018-12-10T08:21:06.925Z,2.90
2018-12-10T08:26:10.062Z,5.97
2018-12-10T08:31:12.558Z,3.47
2018-12-10T08:36:15.088Z,5.33
2018-12-10T08:41:17.681Z,2.27
2018-12-10T08:46:21.721Z,5.37
2018-12-10T08:51:24.194Z,3.70
2018-12-10T08:56:26.689Z,2.97
2018-12-10T09:01:29.181Z,3.23
2018-12-10T09:06:32.438Z,1.87
2018-12-10T09:11:35.852Z,4.40
2018-12-10T09:16:38.476Z,4.07
2018-12-10T09:21:40.952Z,5.17
2018-12-10T09:26:43.449Z,4.57
2018-12-10T09:31:45.980Z,2.20
2018-12-10T09:36:48.453Z,2.80
2018-12-10T09:41:50.925Z,2.20
2018-12-10T09:46:58.901Z,2.30
2018-12-10T09:51:58.137Z,4.23
2018-12-10T09:57:00.605Z,2.23
2018-12-10T10:02:03.101Z,2.70
2018-12-10T10:07:05.658Z,4.53
2018-12-10T10:12:08.162Z,3.83
2018-12-10T10:17:10.658Z,2.27
2018-12-10T10:22:13.122Z,2.50
2018-12-10T10:27:15.614Z,2.33
2018-12-10T10:32:18.584Z,4.13
2018-12-10T10:37:21.054Z,4.10
2018-12-10T10:42:23.550Z,4.90
2018-12-10T10:47:26.018Z,4.77
2018-12-10T10:52:33.163Z,2.70
2018-12-10T10:57:32.982Z,4.37
2018-12-10T11:02:48.243Z,3.23
2018-12-10T11:07:50.711Z,3.40
2018-12-10T11:12:53.233Z,4.97
2018-12-10T11:17:55.726Z,7.03
2018-12-10T11:22:58.195Z,2.23
2018-12-10T11:28:00.682Z,4.53
2018-12-10T11:33:03.228Z,5.27
2018-12-10T11:38:05.728Z,4.90
2018-12-10T11:43:08.563Z,3.80
2018-12-10T11:48:11.153Z,6.33
2018-12-10T11:53:13.627Z,4.27
2018-12-10T11:58:16.124Z,2.30
2018-12-10T12:03:18.595Z,3.27
2018-12-10T12:08:21.101Z,3.23
2018-12-10T12:13:23.724Z,3.90
2018-12-10T12:18:26.211Z,4.57
2018-12-10T12:23:28.709Z,2.13
2018-12-10T12:28:31.174Z,3.10
2018-12-10T12:33:34.055Z,2.50
2018-12-10T12:38:36.547Z,1.83
2018-12-10T12:43:39.127Z,3.77
2018-12-10T12:48:41.667Z,1.40
2018-12-10T12:53:44.177Z,3.07
2018-12-10T12:58:46.652Z,1.37
2018-12-10T13:03:49.146Z,2.20
2018-12-10T13:08:51.715Z,4.73
2018-12-10T13:13:54.615Z,3.10
2018-12-10T13:18:57.090Z,2.87
2018-12-10T13:23:59.709Z,7.77
2018-12-10T13:29:02.342Z,3.13
2018-12-10T13:34:05.220Z,4.13
2018-12-10T13:39:07.713Z,5.83
2018-12-10T13:44:10.207Z,4.27
2018-12-10T13:49:12.737Z,5.23
2018-12-10T13:54:15.229Z,3.23
2018-12-10T13:59:18.150Z,3.00
2018-12-10T14:04:22.592Z,5.17
2018-12-10T14:09:25.165Z,4.30
2018-12-10T14:14:27.823Z,1.73
2018-12-10T14:19:30.330Z,6.60
2018-12-10T14:24:32.850Z,3.37
2018-12-10T14:29:35.361Z,3.63
2018-12-10T14:34:37.897Z,3.20
2018-12-10T14:39:40.474Z,2.43
2018-12-10T14:44:43.061Z,3.23
2018-12-10T14:49:45.685Z,10.17
2018-12-10T14:54:48.351Z,2.17
2018-12-10T14:59:50.843Z,3.57
2018-12-10T15:04:53.578Z,3.07
2018-12-10T15:09:56.062Z,3.93
2018-12-10T15:14:58.605Z,3.20
2018-12-10T15:20:01.197Z,3.30
2018-12-10T15:25:04.415Z,4.80
2018-12-10T15:30:07.613Z,3.60
2018-12-10T15:35:10.312Z,4.00
2018-12-10T15:40:12.937Z,6.35
2018-12-10T15:45:15.497Z,3.60
2018-12-10T15:50:18.226Z,5.13
2018-12-10T15:55:20.818Z,6.03
2018-12-10T16:00:23.433Z,4.60
2018-12-10T16:56:06.029Z,19.97
2018-12-10T17:40:56.203Z,20.50
2018-12-10T17:45:58.706Z,24.77
2018-12-10T17:51:01.263Z,21.73
2018-12-10T17:56:04.281Z,23.83
2018-12-10T18:54:07.048Z,15.77
2018-12-10T18:59:09.516Z,12.40
2018-12-10T19:04:12.089Z,14.43
2018-12-10T19:09:14.792Z,16.03
2018-12-10T19:14:17.324Z,11.33
2018-12-10T19:19:20.156Z,12.57
2018-12-10T19:24:22.627Z,10.20
2018-12-10T19:29:25.089Z,11.63
2018-12-10T19:34:27.581Z,11.43
2018-12-10T19:39:30.141Z,12.07
2018-12-10T19:44:32.606Z,10.23
2018-12-10T19:49:35.069Z,9.87
2018-12-10T19:54:37.674Z,7.23
2018-12-10T19:59:40.276Z,8.53
2018-12-10T20:38:22.126Z,6.23
2018-12-10T20:43:24.700Z,6.97
2018-12-10T20:48:27.185Z,6.87
2018-12-10T20:53:29.905Z,6.87
2018-12-10T20:58:32.421Z,7.60
2018-12-10T21:03:34.906Z,6.10
2018-12-10T21:08:37.452Z,6.83
2018-12-10T21:13:39.918Z,4.43
2018-12-10T21:18:42.408Z,6.87
2018-12-10T21:23:45.658Z,5.83
2018-12-10T21:28:48.784Z,4.37
2018-12-10T21:33:51.312Z,4.90
2018-12-10T21:38:53.893Z,5.40
2018-12-10T21:43:56.356Z,4.47
2018-12-10T21:48:58.866Z,4.67
2018-12-10T21:54:01.367Z,4.00
2018-12-10T21:59:03.928Z,3.33
2018-12-10T22:04:06.398Z,4.23
2018-12-10T22:09:09.000Z,5.87
2018-12-10T22:14:11.493Z,3.33
2018-12-10T22:19:14.030Z,3.70
2018-12-10T22:24:16.488Z,3.83
2018-12-10T22:29:18.970Z,5.83
2018-12-10T22:34:21.485Z,4.13
2018-12-10T22:39:23.948Z,3.30
2018-12-10T22:44:26.656Z,4.13
2018-12-10T22:49:29.147Z,4.77
2018-12-10T22:54:31.610Z,3.67
2018-12-10T22:59:34.129Z,3.00
2018-12-10T23:04:36.628Z,2.80
2018-12-10T23:09:40.131Z,3.50
2018-12-10T23:14:42.644Z,3.20
2018-12-10T23:19:45.136Z,3.40
2018-12-10T23:24:47.597Z,4.00
2018-12-10T23:29:50.104Z,2.53
2018-12-10T23:34:52.564Z,3.73
2018-12-10T23:39:55.036Z,2.63
2018-12-10T23:44:57.492Z,2.23
2018-12-10T23:49:59.953Z,3.07
2018-12-10T23:55:03.004Z,1.97
